createdAt,value
2018-05-31T00:00:51.143Z,0.00
2018-05-31T00:01:51.105Z,0.00
2018-05-31T00:02:51.066Z,0.00
2018-05-31T00:03:51.029Z,0.00
2018-05-31T00:04:50.993Z,0.00
2018-05-31T00:05:50.950Z,0.00
2018-05-31T00:06:50.910Z,0.00
2018-05-31T00:07:50.882Z,0.00
2018-05-31T00:08:50.833Z,0.00
2018-05-31T00:09:50.794Z,0.00
2018-05-31T00:10:50.752Z,0.00
2018-05-31T00:11:50.718Z,0.00
2018-05-31T00:12:50.679Z,0.00
2018-05-31T00:13:50.638Z,0.00
2018-05-31T00:14:50.601Z,0.00
2018-05-31T00:15:50.556Z,0.00
2018-05-31T00:16:50.522Z,0.00
2018-05-31T00:17:50.480Z,0.00
2018-05-31T00:18:50.440Z,0.00
2018-05-31T00:19:50.404Z,0.00
2018-05-31T00:20:50.363Z,0.00
2018-05-31T00:21:50.335Z,0.00
2018-05-31T00:22:50.285Z,0.00
2018-05-31T00:23:50.244Z,0.00
2018-05-31T00:24:50.209Z,0.00
2018-05-31T00:25:50.165Z,0.00
2018-05-31T00:26:50.147Z,0.00
2018-05-31T00:27:50.091Z,0.00
2018-05-31T00:28:50.052Z,0.00
2018-05-31T00:29:50.009Z,0.00
2018-05-31T00:30:49.972Z,0.00
2018-05-31T00:31:49.942Z,0.00
2018-05-31T00:32:49.889Z,0.00
2018-05-31T00:33:49.851Z,0.00
2018-05-31T00:34:49.813Z,0.00
2018-05-31T00:35:49.773Z,0.00
2018-05-31T00:36:49.733Z,0.00
2018-05-31T00:37:49.696Z,0.00
2018-05-31T00:38:49.655Z,0.00
2018-05-31T00:39:49.621Z,0.00
2018-05-31T00:40:49.578Z,0.00
2018-05-31T00:41:49.536Z,0.00
2018-05-31T00:42:49.497Z,0.00
2018-05-31T00:43:49.685Z,0.00
2018-05-31T00:44:49.421Z,0.00
2018-05-31T00:45:49.378Z,0.00
2018-05-31T00:46:49.339Z,0.00
2018-05-31T00:47:49.301Z,0.00
2018-05-31T00:48:49.262Z,0.00
2018-05-31T00:49:49.221Z,0.00
2018-05-31T00:50:49.184Z,0.00
2018-05-31T00:51:49.146Z,0.00
2018-05-31T00:52:49.107Z,0.00
2018-05-31T00:53:49.120Z,0.00
2018-05-31T00:54:49.036Z,0.00
2018-05-31T00:55:48.999Z,0.00
2018-05-31T00:56:48.948Z,0.00
2018-05-31T00:57:48.909Z,0.00
2018-05-31T00:58:48.867Z,0.00
2018-05-31T00:59:48.834Z,0.00
2018-05-31T01:00:48.794Z,0.00
2018-05-31T01:01:48.754Z,0.00
2018-05-31T01:02:48.715Z,0.00
2018-05-31T01:03:48.673Z,0.00
2018-05-31T01:04:48.635Z,0.00
2018-05-31T01:05:48.597Z,0.00
2018-05-31T01:06:48.553Z,0.00
2018-05-31T01:07:48.514Z,0.00
2018-05-31T01:08:48.477Z,0.00
2018-05-31T01:09:48.434Z,0.00
2018-05-31T01:10:48.398Z,0.00
2018-05-31T01:11:48.358Z,0.00
2018-05-31T01:12:48.318Z,0.00
2018-05-31T01:13:48.280Z,0.00
2018-05-31T01:14:48.236Z,0.00
2018-05-31T01:15:48.200Z,0.00
2018-05-31T01:16:48.158Z,0.00
2018-05-31T01:17:48.119Z,0.00
2018-05-31T01:18:48.081Z,0.00
2018-05-31T01:19:48.041Z,0.00
2018-05-31T01:20:48.004Z,0.00
2018-05-31T01:21:47.964Z,0.00
2018-05-31T01:22:47.920Z,0.00
2018-05-31T01:23:47.882Z,0.00
2018-05-31T01:24:47.842Z,0.00
2018-05-31T01:25:47.801Z,0.00
2018-05-31T01:26:47.764Z,0.00
2018-05-31T01:27:47.725Z,0.00
2018-05-31T01:28:47.687Z,0.00
2018-05-31T01:29:47.645Z,0.00
2018-05-31T01:30:47.621Z,0.00
2018-05-31T01:31:47.570Z,0.00
2018-05-31T01:32:47.525Z,0.00
2018-05-31T01:33:47.488Z,0.00
2018-05-31T01:34:47.446Z,0.00
2018-05-31T01:35:47.408Z,0.00
2018-05-31T01:36:47.366Z,0.00
2018-05-31T01:37:47.327Z,0.00
2018-05-31T01:38:47.290Z,0.00
2018-05-31T01:39:47.250Z,0.00
2018-05-31T01:40:47.210Z,0.00
2018-05-31T01:41:47.172Z,0.00
2018-05-31T01:42:47.130Z,0.00
2018-05-31T01:43:47.091Z,0.00
2018-05-31T01:44:47.050Z,0.00
2018-05-31T01:45:47.010Z,0.00
2018-05-31T01:46:46.976Z,0.00
2018-05-31T01:47:46.931Z,0.00
2018-05-31T01:48:46.923Z,0.00
2018-05-31T01:49:46.852Z,0.00
2018-05-31T01:50:46.812Z,0.00
2018-05-31T01:51:46.780Z,0.00
2018-05-31T01:52:46.732Z,0.00
2018-05-31T01:53:46.692Z,0.00
2018-05-31T01:54:46.654Z,0.00
2018-05-31T01:55:46.616Z,0.00
2018-05-31T01:56:46.577Z,0.00
2018-05-31T01:57:46.540Z,0.00
2018-05-31T01:58:46.494Z,0.00
2018-05-31T01:59:46.458Z,0.00
2018-05-31T02:00:46.415Z,0.00
2018-05-31T02:01:46.379Z,0.00
2018-05-31T02:02:46.337Z,0.00
2018-05-31T02:03:46.296Z,0.00
2018-05-31T02:04:46.258Z,0.00
2018-05-31T02:05:46.291Z,0.00
2018-05-31T02:06:46.177Z,0.00
2018-05-31T02:07:46.141Z,0.00
2018-05-31T02:08:46.101Z,0.00
2018-05-31T02:09:46.059Z,0.00
2018-05-31T02:10:46.020Z,0.00
2018-05-31T02:11:45.991Z,0.00
2018-05-31T02:12:45.937Z,0.00
2018-05-31T02:13:45.900Z,0.00
2018-05-31T02:14:45.860Z,0.00
2018-05-31T02:15:45.820Z,0.00
2018-05-31T02:16:45.784Z,0.00
2018-05-31T02:17:45.744Z,0.00
2018-05-31T02:18:45.704Z,0.00
2018-05-31T02:19:45.662Z,0.00
2018-05-31T02:20:45.621Z,0.00
2018-05-31T02:21:45.582Z,0.00
2018-05-31T02:22:45.542Z,0.00
2018-05-31T02:23:45.505Z,0.00
2018-05-31T02:24:45.463Z,0.00
2018-05-31T02:25:45.424Z,0.00
2018-05-31T02:26:45.383Z,0.00
2018-05-31T02:27:45.344Z,0.00
2018-05-31T02:28:45.302Z,0.00
2018-05-31T02:29:45.269Z,0.00
2018-05-31T02:30:45.226Z,0.00
2018-05-31T02:31:45.185Z,0.00
2018-05-31T02:32:45.143Z,0.00
2018-05-31T02:33:45.106Z,0.00
2018-05-31T02:34:45.064Z,0.00
2018-05-31T02:35:45.025Z,0.00
2018-05-31T02:36:44.983Z,0.00
2018-05-31T02:37:44.943Z,0.00
2018-05-31T02:38:44.907Z,0.00
2018-05-31T02:39:44.866Z,0.00
2018-05-31T02:40:44.824Z,0.00
2018-05-31T02:41:44.785Z,0.00
2018-05-31T02:42:44.746Z,0.00
2018-05-31T02:43:44.708Z,0.00
2018-05-31T02:44:44.667Z,0.00
2018-05-31T02:45:44.624Z,0.00
2018-05-31T02:46:44.586Z,0.00
2018-05-31T02:47:44.545Z,0.00
2018-05-31T02:48:44.506Z,0.00
2018-05-31T02:49:44.467Z,0.00
2018-05-31T02:50:44.427Z,4.00
2018-05-31T02:51:44.387Z,4.00
2018-05-31T02:52:44.345Z,0.00
2018-05-31T02:53:44.306Z,0.00
2018-05-31T02:54:44.265Z,0.00
2018-05-31T02:55:44.227Z,4.00
2018-05-31T02:56:44.185Z,4.00
2018-05-31T02:57:44.147Z,0.00
2018-05-31T02:58:44.107Z,4.00
2018-05-31T02:59:44.067Z,4.00
2018-05-31T03:00:44.027Z,4.00
2018-05-31T03:01:43.986Z,4.00
2018-05-31T03:02:43.946Z,4.00
2018-05-31T03:03:43.908Z,4.00
2018-05-31T03:04:43.867Z,8.00
2018-05-31T03:05:43.827Z,8.00
2018-05-31T03:06:43.790Z,12.00
2018-05-31T03:07:43.778Z,8.00
2018-05-31T03:08:43.707Z,12.00
2018-05-31T03:09:43.668Z,16.00
2018-05-31T03:10:43.628Z,16.00
2018-05-31T03:11:43.590Z,20.00
2018-05-31T03:12:43.548Z,20.00
2018-05-31T03:13:43.511Z,24.00
2018-05-31T03:14:43.471Z,28.00
2018-05-31T03:15:43.429Z,28.00
2018-05-31T03:16:43.396Z,36.00
2018-05-31T03:17:43.356Z,36.00
2018-05-31T03:18:43.311Z,40.00
2018-05-31T03:19:43.271Z,44.00
2018-05-31T03:20:43.228Z,44.00
2018-05-31T03:21:43.192Z,52.00
2018-05-31T03:22:43.147Z,52.00
2018-05-31T03:23:43.111Z,56.00
2018-05-31T03:24:43.072Z,60.00
2018-05-31T03:25:43.029Z,64.00
2018-05-31T03:26:42.992Z,68.00
2018-05-31T03:27:42.955Z,72.00
2018-05-31T03:28:42.910Z,72.00
2018-05-31T03:29:42.868Z,76.00
2018-05-31T03:30:42.831Z,76.00
2018-05-31T03:31:42.788Z,84.00
2018-05-31T03:32:42.763Z,88.00
2018-05-31T03:33:42.718Z,96.00
2018-05-31T03:34:42.674Z,104.00
2018-05-31T03:35:42.632Z,112.00
2018-05-31T03:36:42.589Z,116.00
2018-05-31T03:37:42.549Z,124.00
2018-05-31T03:38:42.508Z,128.00
2018-05-31T03:39:42.468Z,132.00
2018-05-31T03:40:42.490Z,140.00
2018-05-31T03:41:42.387Z,144.00
2018-05-31T03:42:42.348Z,152.00
2018-05-31T03:43:42.311Z,156.00
2018-05-31T03:44:42.271Z,164.00
2018-05-31T03:45:42.233Z,172.00
2018-05-31T03:46:42.187Z,184.00
2018-05-31T03:47:42.589Z,192.00
2018-05-31T03:48:42.109Z,200.00
2018-05-31T03:49:42.068Z,212.00
2018-05-31T03:50:42.030Z,224.00
2018-05-31T03:51:41.986Z,232.00
2018-05-31T03:52:41.949Z,244.00
2018-05-31T03:53:41.907Z,256.00
2018-05-31T03:54:41.867Z,264.00
2018-05-31T03:55:41.826Z,276.00
2018-05-31T03:56:41.786Z,284.00
2018-05-31T03:57:41.748Z,296.00
2018-05-31T03:58:41.713Z,304.00
2018-05-31T03:59:41.667Z,312.00
2018-05-31T04:00:41.629Z,320.00
2018-05-31T04:01:41.591Z,324.00
2018-05-31T04:02:41.549Z,332.00
2018-05-31T04:03:41.509Z,340.00
2018-05-31T04:04:41.471Z,348.00
2018-05-31T04:05:41.427Z,356.00
2018-05-31T04:06:41.393Z,360.00
2018-05-31T04:07:41.349Z,368.00
2018-05-31T04:08:41.307Z,376.00
2018-05-31T04:09:41.268Z,384.00
2018-05-31T04:10:41.229Z,392.00
2018-05-31T04:11:41.194Z,404.00
2018-05-31T04:12:41.152Z,416.00
2018-05-31T04:13:41.111Z,432.00
2018-05-31T04:14:41.067Z,452.00
2018-05-31T04:15:41.029Z,472.00
2018-05-31T04:16:40.988Z,492.00
2018-05-31T04:17:40.949Z,524.00
2018-05-31T04:19:40.868Z,580.00
2018-05-31T04:20:40.829Z,604.00
2018-05-31T04:21:40.792Z,620.00
2018-05-31T04:22:40.748Z,640.00
2018-05-31T04:23:40.711Z,652.00
2018-05-31T04:24:40.669Z,664.00
2018-05-31T04:25:40.636Z,676.00
2018-05-31T04:26:40.588Z,696.00
2018-05-31T04:27:40.550Z,704.00
2018-05-31T04:28:40.515Z,716.00
2018-05-31T04:29:40.470Z,724.00
2018-05-31T04:30:40.431Z,724.00
2018-05-31T04:31:40.400Z,720.00
2018-05-31T04:32:40.349Z,720.00
2018-05-31T04:33:40.313Z,716.00
2018-05-31T04:34:40.271Z,716.00
2018-05-31T04:35:40.234Z,716.00
2018-05-31T04:36:40.190Z,716.00
2018-05-31T04:37:40.151Z,716.00
2018-05-31T04:38:40.112Z,720.00
2018-05-31T04:39:40.071Z,720.00
2018-05-31T04:40:40.030Z,716.00
2018-05-31T04:41:39.997Z,708.00
2018-05-31T04:42:39.953Z,700.00
2018-05-31T04:43:39.916Z,688.00
2018-05-31T04:44:39.872Z,680.00
2018-05-31T04:45:39.833Z,672.00
2018-05-31T04:46:39.799Z,672.00
2018-05-31T04:47:39.766Z,672.00
2018-05-31T04:48:39.716Z,672.00
2018-05-31T04:49:39.676Z,672.00
2018-05-31T04:50:39.635Z,668.00
2018-05-31T04:51:39.597Z,668.00
2018-05-31T04:52:39.558Z,676.00
2018-05-31T04:53:39.520Z,700.00
2018-05-31T04:54:39.481Z,720.00
2018-05-31T04:55:39.438Z,740.00
2018-05-31T04:56:39.397Z,760.00
2018-05-31T04:57:39.356Z,780.00
2018-05-31T04:58:39.321Z,800.00
2018-05-31T04:59:39.277Z,824.00
2018-05-31T05:00:39.240Z,844.00
2018-05-31T05:01:39.200Z,868.00
2018-05-31T05:02:39.160Z,880.00
2018-05-31T05:03:39.124Z,892.00
2018-05-31T05:04:39.082Z,908.00
2018-05-31T05:05:39.042Z,924.00
2018-05-31T05:06:39.002Z,936.00
2018-05-31T05:07:38.965Z,940.00
2018-05-31T05:08:38.923Z,944.00
2018-05-31T05:09:38.881Z,940.00
2018-05-31T05:10:38.844Z,936.00
2018-05-31T05:11:38.804Z,932.00
2018-05-31T05:12:38.772Z,928.00
2018-05-31T05:13:38.725Z,924.00
2018-05-31T05:14:38.688Z,920.00
2018-05-31T05:15:38.646Z,916.00
2018-05-31T05:16:38.606Z,908.00
2018-05-31T05:17:38.566Z,908.00
2018-05-31T05:18:38.528Z,908.00
2018-05-31T05:19:38.490Z,912.00
2018-05-31T05:20:38.445Z,920.00
2018-05-31T05:21:38.425Z,924.00
2018-05-31T05:22:38.371Z,920.00
2018-05-31T05:23:38.335Z,928.00
2018-05-31T05:24:38.292Z,936.00
2018-05-31T05:25:38.252Z,984.00
2018-05-31T05:26:38.215Z,992.00
2018-05-31T05:27:38.175Z,1000.00
2018-05-31T05:28:38.135Z,1012.00
2018-05-31T05:29:38.096Z,1016.00
2018-05-31T05:30:38.060Z,1012.00
2018-05-31T05:31:38.017Z,1008.00
2018-05-31T05:32:37.979Z,1020.00
2018-05-31T05:33:37.937Z,1020.00
2018-05-31T05:34:37.900Z,1012.00
2018-05-31T05:35:37.860Z,1000.00
2018-05-31T05:36:37.825Z,1000.00
2018-05-31T05:37:37.780Z,1028.00
2018-05-31T05:38:37.742Z,1048.00
2018-05-31T05:39:37.707Z,1060.00
2018-05-31T05:40:37.663Z,1068.00
2018-05-31T05:41:37.625Z,1064.00
2018-05-31T05:42:37.585Z,1060.00
2018-05-31T05:43:37.648Z,1028.00
2018-05-31T05:44:37.514Z,992.00
2018-05-31T05:45:37.468Z,976.00
2018-05-31T05:46:37.430Z,1000.00
2018-05-31T05:47:37.391Z,1016.00
2018-05-31T05:48:37.351Z,1040.00
2018-05-31T05:49:37.315Z,1092.00
2018-05-31T05:50:37.274Z,1144.00
2018-05-31T05:51:37.240Z,1184.00
2018-05-31T05:52:37.199Z,1204.00
2018-05-31T05:53:37.158Z,1228.00
2018-05-31T05:54:37.118Z,1240.00
2018-05-31T05:55:37.083Z,1248.00
2018-05-31T05:56:37.040Z,1228.00
2018-05-31T05:57:37.006Z,1200.00
2018-05-31T05:58:36.960Z,1148.00
2018-05-31T05:59:36.930Z,1104.00
2018-05-31T06:00:36.888Z,1040.00
2018-05-31T06:01:36.848Z,1016.00
2018-05-31T06:02:36.811Z,1052.00
2018-05-31T06:03:36.769Z,1084.00
2018-05-31T06:04:36.729Z,1104.00
2018-05-31T06:05:36.693Z,1132.00
2018-05-31T06:06:36.653Z,1148.00
2018-05-31T06:07:36.614Z,1176.00
2018-05-31T06:08:36.577Z,1212.00
2018-05-31T06:09:36.542Z,1232.00
2018-05-31T06:10:36.501Z,1236.00
2018-05-31T06:11:36.463Z,1208.00
2018-05-31T06:12:36.425Z,1232.00
2018-05-31T06:13:36.384Z,1284.00
2018-05-31T06:14:36.344Z,1316.00
2018-05-31T06:15:36.352Z,1360.00
2018-05-31T06:16:36.272Z,1380.00
2018-05-31T06:17:36.231Z,1408.00
2018-05-31T06:18:36.189Z,1428.00
2018-05-31T06:19:36.151Z,1416.00
2018-05-31T06:20:36.116Z,1412.00
2018-05-31T06:21:36.081Z,1352.00
2018-05-31T06:22:36.039Z,1324.00
2018-05-31T06:23:36.003Z,1284.00
2018-05-31T06:24:36.012Z,1292.00
2018-05-31T06:25:35.924Z,1316.00
2018-05-31T06:26:35.883Z,1356.00
2018-05-31T06:27:35.845Z,1404.00
2018-05-31T06:28:35.805Z,1452.00
2018-05-31T06:29:35.777Z,1520.00
2018-05-31T06:30:35.733Z,1648.00
2018-05-31T06:31:35.691Z,1640.00
2018-05-31T06:32:35.658Z,1632.00
2018-05-31T06:33:35.651Z,1724.00
2018-05-31T06:34:35.581Z,1804.00
2018-05-31T06:35:35.542Z,1788.00
2018-05-31T06:36:35.499Z,1864.00
2018-05-31T06:37:35.461Z,1824.00
2018-05-31T06:38:35.423Z,1812.00
2018-05-31T06:39:35.383Z,1780.00
2018-05-31T06:40:35.346Z,1776.00
2018-05-31T06:41:35.310Z,1808.00
2018-05-31T06:42:35.272Z,1860.00
2018-05-31T06:43:35.232Z,1996.00
2018-05-31T06:44:35.195Z,1952.00
2018-05-31T06:45:35.161Z,1984.00
2018-05-31T06:46:35.118Z,2032.00
2018-05-31T06:47:35.081Z,2048.00
2018-05-31T06:48:35.044Z,2072.00
2018-05-31T06:49:35.006Z,2092.00
2018-05-31T06:50:34.967Z,2088.00
2018-05-31T06:51:34.929Z,2076.00
2018-05-31T06:52:34.892Z,2064.00
2018-05-31T06:53:34.855Z,2052.00
2018-05-31T06:54:34.818Z,2064.00
2018-05-31T06:55:34.779Z,2080.00
2018-05-31T06:56:34.739Z,2056.00
2018-05-31T06:57:34.701Z,2020.00
2018-05-31T06:58:34.664Z,2000.00
2018-05-31T06:59:34.630Z,2132.00
2018-05-31T07:00:34.588Z,2124.00
2018-05-31T07:01:34.548Z,2048.00
2018-05-31T07:02:34.514Z,1996.00
2018-05-31T07:03:34.475Z,2112.00
2018-05-31T07:04:34.442Z,2128.00
2018-05-31T07:05:34.406Z,2080.00
2018-05-31T07:06:34.361Z,2004.00
2018-05-31T07:07:34.326Z,1964.00
2018-05-31T07:08:34.286Z,1924.00
2018-05-31T07:09:34.255Z,1928.00
2018-05-31T07:10:34.211Z,1852.00
2018-05-31T07:11:34.181Z,1912.00
2018-05-31T07:12:34.139Z,2040.00
2018-05-31T07:13:34.101Z,2044.00
2018-05-31T07:14:34.063Z,2004.00
2018-05-31T07:15:34.026Z,1896.00
2018-05-31T07:16:33.986Z,1924.00
2018-05-31T07:17:33.950Z,1856.00
2018-05-31T07:18:33.912Z,1936.00
2018-05-31T07:19:33.877Z,1964.00
2018-05-31T07:20:33.838Z,1996.00
2018-05-31T07:21:33.800Z,2044.00
2018-05-31T07:22:33.763Z,2008.00
2018-05-31T07:23:33.727Z,2020.00
2018-05-31T07:24:33.687Z,2096.00
2018-05-31T07:25:33.653Z,1984.00
2018-05-31T07:26:33.615Z,2104.00
2018-05-31T07:27:33.582Z,2288.00
2018-05-31T07:28:33.539Z,2312.00
2018-05-31T07:29:33.502Z,2460.00
2018-05-31T07:30:33.464Z,2592.00
2018-05-31T07:31:33.433Z,2544.00
2018-05-31T07:32:33.390Z,2576.00
2018-05-31T07:33:33.357Z,2556.00
2018-05-31T07:34:33.316Z,2528.00
2018-05-31T07:35:33.279Z,2504.00
2018-05-31T07:36:33.242Z,2576.00
2018-05-31T07:37:33.205Z,2644.00
2018-05-31T07:38:33.167Z,2748.00
2018-05-31T07:39:33.135Z,2812.00
2018-05-31T07:40:33.093Z,3004.00
2018-05-31T07:41:33.062Z,2912.00
2018-05-31T07:42:33.021Z,2940.00
2018-05-31T07:43:32.983Z,2952.00
2018-05-31T07:44:32.945Z,2932.00
2018-05-31T07:45:32.907Z,2920.00
2018-05-31T07:46:32.874Z,2960.00
2018-05-31T07:47:32.834Z,2940.00
2018-05-31T07:48:32.800Z,2940.00
2018-05-31T07:49:32.766Z,2936.00
2018-05-31T07:50:32.723Z,2956.00
2018-05-31T07:51:32.687Z,2920.00
2018-05-31T07:52:32.662Z,2924.00
2018-05-31T07:53:32.612Z,2916.00
2018-05-31T07:54:32.578Z,2932.00
2018-05-31T07:55:32.544Z,2996.00
2018-05-31T07:56:32.502Z,3008.00
2018-05-31T07:57:32.465Z,2916.00
2018-05-31T07:58:32.428Z,2936.00
2018-05-31T07:59:32.392Z,2956.00
2018-05-31T08:00:32.357Z,2980.00
2018-05-31T08:01:32.318Z,3052.00
2018-05-31T08:02:32.284Z,3068.00
2018-05-31T08:03:32.248Z,3116.00
2018-05-31T08:04:32.207Z,3112.00
2018-05-31T08:05:32.172Z,3216.00
2018-05-31T08:06:32.137Z,3284.00
2018-05-31T08:07:32.099Z,3292.00
2018-05-31T08:08:32.077Z,4564.00
2018-05-31T08:09:32.026Z,3484.00
2018-05-31T08:10:31.989Z,2040.00
2018-05-31T08:11:31.954Z,2660.00
2018-05-31T08:12:31.915Z,2240.00
2018-05-31T08:13:31.879Z,2232.00
2018-05-31T08:14:31.843Z,2152.00
2018-05-31T08:15:31.806Z,2108.00
2018-05-31T08:16:31.769Z,2068.00
2018-05-31T08:17:31.742Z,2028.00
2018-05-31T08:18:31.696Z,1988.00
2018-05-31T08:19:31.660Z,1960.00
2018-05-31T08:20:31.625Z,1968.00
2018-05-31T08:21:31.588Z,1996.00
2018-05-31T08:22:31.552Z,1984.00
2018-05-31T08:23:31.555Z,2012.00
2018-05-31T08:24:31.492Z,2048.00
2018-05-31T08:25:31.440Z,2088.00
2018-05-31T08:26:31.404Z,2120.00
2018-05-31T08:27:31.371Z,2160.00
2018-05-31T08:28:31.334Z,2228.00
2018-05-31T08:29:31.295Z,2216.00
2018-05-31T08:30:31.262Z,2256.00
2018-05-31T08:31:31.355Z,2292.00
2018-05-31T08:32:31.186Z,2268.00
2018-05-31T08:33:31.155Z,2236.00
2018-05-31T08:34:31.114Z,2176.00
2018-05-31T08:35:31.080Z,2136.00
2018-05-31T08:36:31.046Z,2156.00
2018-05-31T08:37:31.006Z,2204.00
2018-05-31T08:38:30.967Z,2012.00
2018-05-31T08:39:30.934Z,2080.00
2018-05-31T08:40:30.897Z,2104.00
2018-05-31T08:41:30.858Z,2120.00
2018-05-31T08:42:30.823Z,2156.00
2018-05-31T08:43:30.788Z,2228.00
2018-05-31T08:44:30.756Z,2216.00
2018-05-31T08:45:30.716Z,2248.00
2018-05-31T08:46:30.691Z,2304.00
2018-05-31T08:47:30.649Z,2368.00
2018-05-31T08:48:30.608Z,2420.00
2018-05-31T08:49:30.569Z,2476.00
2018-05-31T08:50:30.537Z,2640.00
2018-05-31T08:51:30.498Z,2996.00
2018-05-31T08:52:30.464Z,3296.00
2018-05-31T08:53:30.424Z,2968.00
2018-05-31T08:54:30.392Z,2924.00
2018-05-31T08:55:30.352Z,3032.00
2018-05-31T08:56:30.315Z,2604.00
2018-05-31T08:57:30.281Z,2452.00
2018-05-31T08:58:30.245Z,2464.00
2018-05-31T08:59:30.209Z,3140.00
2018-05-31T09:00:30.173Z,3364.00
2018-05-31T09:01:30.141Z,2920.00
2018-05-31T09:02:30.101Z,2744.00
2018-05-31T09:03:30.070Z,2448.00
2018-05-31T09:04:30.031Z,2440.00
2018-05-31T09:05:29.994Z,2524.00
2018-05-31T09:06:29.957Z,2388.00
2018-05-31T09:07:29.928Z,2384.00
2018-05-31T09:08:29.884Z,2396.00
2018-05-31T09:09:29.893Z,2412.00
2018-05-31T09:10:29.820Z,2540.00
2018-05-31T09:11:29.787Z,2648.00
2018-05-31T09:12:29.744Z,2684.00
2018-05-31T09:13:29.716Z,2700.00
2018-05-31T09:14:29.678Z,2852.00
2018-05-31T09:15:29.641Z,2680.00
2018-05-31T09:16:29.600Z,3020.00
2018-05-31T09:17:29.572Z,2904.00
2018-05-31T09:18:29.535Z,2732.00
2018-05-31T09:19:29.498Z,2664.00
2018-05-31T09:20:29.464Z,2720.00
2018-05-31T09:21:29.426Z,2756.00
2018-05-31T09:22:29.390Z,2740.00
2018-05-31T09:23:29.357Z,2736.00
2018-05-31T09:24:29.323Z,2812.00
2018-05-31T09:25:29.283Z,2736.00
2018-05-31T09:26:29.251Z,2800.00
2018-05-31T09:27:29.213Z,2788.00
2018-05-31T09:28:29.224Z,2760.00
2018-05-31T09:29:29.151Z,2932.00
2018-05-31T09:30:29.108Z,2740.00
2018-05-31T09:31:29.077Z,2728.00
2018-05-31T09:32:29.037Z,2696.00
2018-05-31T09:33:29.001Z,2672.00
2018-05-31T09:34:28.967Z,2656.00
2018-05-31T09:35:28.933Z,2668.00
2018-05-31T09:36:28.904Z,2736.00
2018-05-31T09:37:28.860Z,2744.00
2018-05-31T09:38:28.826Z,2740.00
2018-05-31T09:39:28.793Z,2752.00
2018-05-31T09:40:28.755Z,2744.00
2018-05-31T09:41:28.719Z,2784.00
2018-05-31T09:42:28.685Z,3168.00
2018-05-31T09:43:28.654Z,3028.00
2018-05-31T09:44:28.617Z,2932.00
2018-05-31T09:45:28.578Z,2840.00
2018-05-31T09:46:28.545Z,2740.00
2018-05-31T09:47:28.511Z,2692.00
2018-05-31T09:48:28.485Z,2636.00
2018-05-31T09:49:28.441Z,2624.00
2018-05-31T09:50:28.407Z,2548.00
2018-05-31T09:51:28.376Z,2460.00
2018-05-31T09:52:28.335Z,2508.00
2018-05-31T09:53:28.300Z,2332.00
2018-05-31T09:54:28.266Z,2176.00
2018-05-31T09:55:28.235Z,2084.00
2018-05-31T09:56:28.195Z,2024.00
2018-05-31T09:57:28.164Z,2060.00
2018-05-31T09:58:28.126Z,2044.00
2018-05-31T09:59:28.091Z,1996.00
2018-05-31T10:00:28.057Z,1960.00
2018-05-31T10:01:28.033Z,1960.00
2018-05-31T10:02:27.996Z,1980.00
2018-05-31T10:03:27.953Z,1972.00
2018-05-31T10:04:27.916Z,2000.00
2018-05-31T10:05:27.883Z,2040.00
2018-05-31T10:06:27.848Z,2008.00
2018-05-31T10:07:27.811Z,2252.00
2018-05-31T10:08:27.777Z,2268.00
2018-05-31T10:09:27.740Z,2064.00
2018-05-31T10:10:27.707Z,2088.00
2018-05-31T10:11:27.672Z,2536.00
2018-05-31T10:12:27.636Z,2472.00
2018-05-31T10:13:27.605Z,2116.00
2018-05-31T10:14:27.568Z,2668.00
2018-05-31T10:15:27.532Z,2272.00
2018-05-31T10:16:27.503Z,2556.00
2018-05-31T10:17:27.463Z,2340.00
2018-05-31T10:18:27.433Z,2464.00
2018-05-31T10:19:27.396Z,2440.00
2018-05-31T10:20:27.362Z,2872.00
2018-05-31T10:21:27.324Z,2832.00
2018-05-31T10:22:27.294Z,2468.00
2018-05-31T10:23:27.295Z,2392.00
2018-05-31T10:24:27.219Z,2484.00
2018-05-31T10:25:27.184Z,2620.00
2018-05-31T10:26:27.150Z,2352.00
2018-05-31T10:27:27.115Z,2528.00
2018-05-31T10:28:27.081Z,2608.00
2018-05-31T10:29:27.051Z,2400.00
2018-05-31T10:30:27.010Z,2400.00
2018-05-31T10:31:26.977Z,2408.00
2018-05-31T10:32:26.940Z,2404.00
2018-05-31T10:33:26.919Z,2448.00
2018-05-31T10:34:26.875Z,2472.00
2018-05-31T10:35:26.842Z,2524.00
2018-05-31T10:36:26.804Z,2596.00
2018-05-31T10:37:26.769Z,2792.00
2018-05-31T10:38:26.743Z,2760.00
2018-05-31T10:39:26.729Z,2812.00
2018-05-31T10:40:26.665Z,2860.00
2018-05-31T10:41:26.640Z,2820.00
2018-05-31T10:42:26.599Z,2800.00
2018-05-31T10:43:26.562Z,2916.00
2018-05-31T10:44:26.528Z,2952.00
2018-05-31T10:45:26.491Z,3396.00
2018-05-31T10:46:26.474Z,3152.00
2018-05-31T10:47:26.431Z,2980.00
2018-05-31T10:48:26.393Z,2940.00
2018-05-31T10:49:26.354Z,2984.00
2018-05-31T10:50:26.319Z,3052.00
2018-05-31T10:51:26.287Z,3528.00
2018-05-31T10:52:26.249Z,3188.00
2018-05-31T10:53:26.217Z,3352.00
2018-05-31T10:54:26.182Z,4452.00
2018-05-31T10:55:26.149Z,4100.00
2018-05-31T10:56:26.116Z,4192.00
2018-05-31T10:57:26.082Z,5252.00
2018-05-31T10:58:26.045Z,5244.00
2018-05-31T10:59:26.010Z,5264.00
2018-05-31T11:00:25.976Z,5188.00
2018-05-31T11:01:25.941Z,5152.00
2018-05-31T11:02:25.907Z,5132.00
2018-05-31T11:03:25.885Z,4872.00
2018-05-31T11:04:25.861Z,4744.00
2018-05-31T11:05:25.806Z,4904.00
2018-05-31T11:06:25.775Z,4792.00
2018-05-31T11:07:25.740Z,4780.00
2018-05-31T11:08:25.715Z,4516.00
2018-05-31T11:09:25.672Z,4488.00
2018-05-31T11:10:25.638Z,4380.00
2018-05-31T11:11:25.604Z,4272.00
2018-05-31T11:12:25.573Z,4272.00
2018-05-31T11:13:25.537Z,4284.00
2018-05-31T11:14:25.505Z,4120.00
2018-05-31T11:15:25.493Z,3900.00
2018-05-31T11:16:25.436Z,4052.00
2018-05-31T11:17:25.410Z,4068.00
2018-05-31T11:18:25.373Z,4096.00
2018-05-31T11:19:25.340Z,4140.00
2018-05-31T11:20:25.304Z,4152.00
2018-05-31T11:21:25.273Z,4148.00
2018-05-31T11:22:25.241Z,4232.00
2018-05-31T11:23:25.206Z,4276.00
2018-05-31T11:24:25.173Z,4232.00
2018-05-31T11:25:25.142Z,4256.00
2018-05-31T11:26:25.107Z,4332.00
2018-05-31T11:27:25.074Z,4408.00
2018-05-31T11:28:25.039Z,4388.00
2018-05-31T11:29:25.011Z,4452.00
2018-05-31T11:30:24.975Z,4492.00
2018-05-31T11:31:24.944Z,4552.00
2018-05-31T11:32:24.910Z,4636.00
2018-05-31T11:33:24.878Z,4692.00
2018-05-31T11:34:24.847Z,4788.00
2018-05-31T11:35:24.815Z,4960.00
2018-05-31T11:36:24.837Z,4972.00
2018-05-31T11:37:24.757Z,5076.00
2018-05-31T11:38:24.718Z,5072.00
2018-05-31T11:39:24.689Z,5160.00
2018-05-31T11:40:24.652Z,5252.00
2018-05-31T11:41:24.621Z,5292.00
2018-05-31T11:42:24.591Z,4940.00
2018-05-31T11:43:24.555Z,5344.00
2018-05-31T11:44:24.521Z,5392.00
2018-05-31T11:45:24.489Z,5740.00
2018-05-31T11:46:24.460Z,5532.00
2018-05-31T11:47:24.431Z,5568.00
2018-05-31T11:48:24.396Z,5512.00
2018-05-31T11:49:24.364Z,5472.00
2018-05-31T11:50:24.338Z,5460.00
2018-05-31T11:51:24.297Z,4580.00
2018-05-31T11:52:24.266Z,3456.00
2018-05-31T11:53:24.233Z,3616.00
2018-05-31T11:54:24.205Z,3972.00
2018-05-31T11:55:24.170Z,3384.00
2018-05-31T11:56:24.164Z,3616.00
2018-05-31T11:57:24.107Z,3872.00
2018-05-31T11:58:24.082Z,4472.00
2018-05-31T11:59:24.043Z,4400.00
2018-05-31T12:00:24.011Z,4980.00
2018-05-31T12:01:23.987Z,5044.00
2018-05-31T12:02:23.949Z,4472.00
2018-05-31T12:03:23.919Z,4656.00
2018-05-31T12:04:23.881Z,4852.00
2018-05-31T12:05:23.851Z,4836.00
2018-05-31T12:06:23.843Z,4904.00
2018-05-31T12:07:23.790Z,4976.00
2018-05-31T12:08:23.812Z,5092.00
2018-05-31T12:09:23.725Z,5232.00
2018-05-31T12:10:23.693Z,5436.00
2018-05-31T12:11:23.660Z,5532.00
2018-05-31T12:12:23.628Z,5616.00
2018-05-31T12:13:23.600Z,5572.00
2018-05-31T12:14:23.567Z,5652.00
2018-05-31T12:15:23.537Z,5532.00
2018-05-31T12:16:23.502Z,5520.00
2018-05-31T12:17:23.512Z,5532.00
2018-05-31T12:18:23.442Z,5632.00
2018-05-31T12:19:23.408Z,5668.00
2018-05-31T12:20:23.378Z,5716.00
2018-05-31T12:21:23.345Z,5728.00
2018-05-31T12:22:23.316Z,5780.00
2018-05-31T12:23:23.281Z,5908.00
2018-05-31T12:24:23.250Z,5832.00
2018-05-31T12:25:23.231Z,5764.00
2018-05-31T12:26:23.194Z,5672.00
2018-05-31T12:27:23.159Z,5572.00
2018-05-31T12:28:23.125Z,5568.00